Time;durP1;ratioP1;P1;durP2;ratioP2;P2;SDS_P1;SDS_P2;PMS_P1;PMS_P2;Temp;Humidity;BMP_temperature;BMP_pressure;BME280_temperature;BME280_humidity;BME280_pressure;Samples;Min_cycle;Max_cycle;Signal;HPM_P1;HPM_P2
2022/01/11 00:00:20;;;;;;;94.10;41.50;;;;;;;;;;5072817;28;20070;-78
2022/01/11 00:02:46;;;;;;;125.18;47.65;;;;;;;;;;5081290;28;20049;-78
2022/01/11 00:05:26;;;;;;;106.00;43.45;;;;;;;;;;5068956;28;20048;-77
2022/01/11 00:07:54;;;;;;;131.77;46.38;;;;;;;;;;5070629;28;20512;-86
2022/01/11 00:10:26;;;;;;;96.55;38.58;;;;;;;;;;5069780;28;20086;-82
2022/01/11 00:12:52;;;;;;;80.93;38.90;;;;;;;;;;5053033;28;20476;-81
2022/01/11 00:15:19;;;;;;;88.80;39.38;;;;;;;;;;5062404;28;20091;-81
2022/01/11 00:17:45;;;;;;;103.75;40.08;;;;;;;;;;5061406;28;20049;-82
2022/01/11 00:20:16;;;;;;;65.05;34.17;;;;;;;;;;5081896;28;20052;-82
2022/01/11 00:25:28;;;;;;;74.55;37.03;;;;;;;;;;5085502;28;20044;-81
2022/01/11 00:27:54;;;;;;;61.22;34.70;;;;;;;;;;5087473;28;20483;-81
2022/01/11 00:30:21;;;;;;;72.68;37.53;;;;;;;;;;5085751;28;20450;-82
2022/01/11 00:32:52;;;;;;;63.88;35.05;;;;;;;;;;5088222;28;20502;-82
2022/01/11 00:35:22;;;;;;;64.43;36.25;;;;;;;;;;5092899;28;20098;-81
2022/01/11 00:37:49;;;;;;;63.45;35.00;;;;;;;;;;5072861;28;20130;-81
2022/01/11 00:40:15;;;;;;;65.85;32.28;;;;;;;;;;5085798;28;20407;-80
2022/01/11 00:42:41;;;;;;;69.10;35.72;;;;;;;;;;5070459;28;20035;-80
2022/01/11 00:45:12;;;;;;;75.72;36.50;;;;;;;;;;5082235;28;20055;-80
2022/01/11 00:47:39;;;;;;;68.20;36.10;;;;;;;;;;5096811;28;20495;-81
2022/01/11 00:50:05;;;;;;;66.68;34.72;;;;;;;;;;5090673;28;20040;-81
2022/01/11 00:52:31;;;;;;;60.08;34.63;;;;;;;;;;5075715;28;20781;-80
2022/01/11 00:54:57;;;;;;;67.28;36.05;;;;;;;;;;5089644;28;20483;-81
2022/01/11 00:57:23;;;;;;;68.95;35.60;;;;;;;;;;5076354;28;20066;-80
2022/01/11 00:59:49;;;;;;;70.13;37.65;;;;;;;;;;5087660;28;20044;-80
2022/01/11 01:02:16;;;;;;;59.90;34.17;;;;;;;;;;5102716;28;20044;-82
2022/01/11 01:04:42;;;;;;;68.78;35.30;;;;;;;;;;5068676;28;20172;-81
2022/01/11 01:07:08;;;;;;;72.32;36.03;;;;;;;;;;5072374;28;20051;-81
2022/01/11 01:09:45;;;;;;;76.28;36.35;;;;;;;;;;5064195;28;20043;-81
2022/01/11 01:12:11;;;;;;;77.60;37.58;;;;;;;;;;5064487;28;20047;-81
2022/01/11 01:14:37;;;;;;;71.75;36.45;;;;;;;;;;5082558;28;20468;-82
2022/01/11 01:17:04;;;;;;;72.32;37.22;;;;;;;;;;5088367;28;20078;-82
2022/01/11 01:19:30;;;;;;;73.38;37.42;;;;;;;;;;5069645;28;20043;-81
2022/01/11 01:21:56;;;;;;;72.30;35.45;;;;;;;;;;5072065;28;20077;-82
2022/01/11 01:24:22;;;;;;;65.35;35.20;;;;;;;;;;5068302;28;20051;-81
2022/01/11 01:26:48;;;;;;;73.60;37.15;;;;;;;;;;5083228;28;20097;-82
2022/01/11 01:29:15;;;;;;;77.70;37.30;;;;;;;;;;5067606;28;20044;-81
2022/01/11 01:31:41;;;;;;;73.30;35.13;;;;;;;;;;5081463;28;20032;-81
2022/01/11 01:34:08;;;;;;;73.53;37.75;;;;;;;;;;5108584;27;20033;-81
2022/01/11 01:36:34;;;;;;;73.32;36.13;;;;;;;;;;5060347;28;20052;-81
2022/01/11 01:39:00;;;;;;;69.22;36.40;;;;;;;;;;5072306;28;20044;-82
2022/01/11 01:41:26;;;;;;;66.93;36.05;;;;;;;;;;5072783;28;20050;-81
2022/01/11 01:43:55;;;;;;;70.38;36.22;;;;;;;;;;5067636;28;20464;-81
2022/01/11 01:46:22;;;;;;;73.53;36.92;;;;;;;;;;5068868;28;20052;-81
2022/01/11 01:48:48;;;;;;;75.65;34.75;;;;;;;;;;5053502;28;20077;-81
2022/01/11 01:51:14;;;;;;;64.70;35.20;;;;;;;;;;5071070;28;20052;-81
2022/01/11 01:53:43;;;;;;;75.05;36.47;;;;;;;;;;5063227;28;20102;-81
2022/01/11 01:56:09;;;;;;;66.32;35.30;;;;;;;;;;5091570;28;20052;-81
2022/01/11 01:58:37;;;;;;;69.15;34.47;;;;;;;;;;5062850;28;20391;-81
2022/01/11 02:01:04;;;;;;;63.45;34.60;;;;;;;;;;5083763;28;20087;-81
2022/01/11 02:03:36;;;;;;;76.80;38.13;;;;;;;;;;5075029;28;20403;-81
2022/01/11 02:06:02;;;;;;;82.47;39.42;;;;;;;;;;5059260;28;20048;-81
2022/01/11 02:08:28;;;;;;;86.55;37.72;;;;;;;;;;5055634;28;20127;-81
2022/01/11 02:10:55;;;;;;;78.90;37.15;;;;;;;;;;5088993;28;20044;-81
2022/01/11 02:13:21;;;;;;;77.32;37.33;;;;;;;;;;5060198;28;20491;-81
2022/01/11 02:15:47;;;;;;;85.68;38.25;;;;;;;;;;5063535;28;20109;-81
2022/01/11 02:18:14;;;;;;;80.43;37.13;;;;;;;;;;5065805;28;20048;-81
2022/01/11 02:20:43;;;;;;;76.05;38.45;;;;;;;;;;5066756;28;20052;-82
2022/01/11 02:23:09;;;;;;;76.28;38.17;;;;;;;;;;5085694;28;20059;-81
2022/01/11 02:25:36;;;;;;;83.93;38.65;;;;;;;;;;5068289;28;20044;-82
2022/01/11 02:28:03;;;;;;;78.68;38.22;;;;;;;;;;5060160;28;20051;-82
2022/01/11 02:30:32;;;;;;;84.88;40.65;;;;;;;;;;5065988;28;20125;-82
2022/01/11 02:32:59;;;;;;;83.65;38.92;;;;;;;;;;5090652;28;20048;-82
2022/01/11 02:35:25;;;;;;;80.15;38.88;;;;;;;;;;5083109;28;20048;-81
2022/01/11 02:37:51;;;;;;;98.28;42.42;;;;;;;;;;5074093;28;20381;-80
2022/01/11 02:40:17;;;;;;;94.85;41.80;;;;;;;;;;5052125;28;20055;-81
2022/01/11 02:42:43;;;;;;;97.82;40.90;;;;;;;;;;5057352;28;20054;-81
2022/01/11 02:45:17;;;;;;;97.53;43.35;;;;;;;;;;5077763;28;20043;-81
2022/01/11 02:47:47;;;;;;;96.20;41.25;;;;;;;;;;5092509;28;20066;-81
2022/01/11 02:50:14;;;;;;;90.25;41.85;;;;;;;;;;5066307;28;20076;-80
2022/01/11 02:52:40;;;;;;;106.07;42.42;;;;;;;;;;5059111;28;20080;-81
2022/01/11 02:55:08;;;;;;;93.80;41.95;;;;;;;;;;5068347;28;20044;-81
2022/01/11 02:57:34;;;;;;;108.63;43.78;;;;;;;;;;5083544;28;20048;-81
2022/01/11 03:00:00;;;;;;;93.03;42.65;;;;;;;;;;5081366;28;20044;-82
2022/01/11 03:02:27;;;;;;;121.30;46.78;;;;;;;;;;5074502;28;20101;-81
2022/01/11 03:04:53;;;;;;;101.78;41.65;;;;;;;;;;5074499;28;20052;-80
2022/01/11 03:07:22;;;;;;;108.90;45.72;;;;;;;;;;5072779;28;20044;-81
2022/01/11 03:12:23;;;;;;;104.82;44.08;;;;;;;;;;5067425;28;20058;-81
2022/01/11 03:14:49;;;;;;;99.45;45.15;;;;;;;;;;5055464;28;20053;-81
2022/01/11 03:17:15;;;;;;;109.97;45.78;;;;;;;;;;5062788;28;20119;-81
2022/01/11 03:19:42;;;;;;;118.10;46.00;;;;;;;;;;5081074;28;20032;-81
2022/01/11 03:22:08;;;;;;;111.25;45.88;;;;;;;;;;5063481;28;20058;-81
2022/01/11 03:24:34;;;;;;;114.10;48.05;;;;;;;;;;5062087;28;20049;-81
2022/01/11 03:27:00;;;;;;;111.60;46.10;;;;;;;;;;5063733;28;20093;-82
2022/01/11 03:29:26;;;;;;;143.40;53.58;;;;;;;;;;5073965;28;20395;-82
2022/01/11 03:31:52;;;;;;;123.25;49.60;;;;;;;;;;5068511;28;20145;-82
2022/01/11 03:34:19;;;;;;;135.75;50.40;;;;;;;;;;5068938;28;20048;-82
2022/01/11 03:36:45;;;;;;;126.88;49.45;;;;;;;;;;5086471;28;20059;-81
2022/01/11 03:39:12;;;;;;;140.60;52.85;;;;;;;;;;5064137;28;20382;-80
2022/01/11 03:41:38;;;;;;;135.10;50.33;;;;;;;;;;5074915;28;20381;-80
2022/01/11 03:44:04;;;;;;;145.50;51.00;;;;;;;;;;5083438;28;20052;-81
2022/01/11 03:46:30;;;;;;;119.93;48.80;;;;;;;;;;5061173;28;20040;-80
2022/01/11 03:48:57;;;;;;;153.48;51.50;;;;;;;;;;5067308;28;20043;-80
2022/01/11 03:51:23;;;;;;;129.10;50.03;;;;;;;;;;5076246;28;20158;-81
2022/01/11 03:53:55;;;;;;;133.68;48.53;;;;;;;;;;5061700;28;20052;-79
2022/01/11 03:56:21;;;;;;;139.80;49.08;;;;;;;;;;5087033;28;20063;-79
2022/01/11 03:58:48;;;;;;;118.40;47.80;;;;;;;;;;5074468;28;20044;-80
2022/01/11 04:01:14;;;;;;;122.43;48.28;;;;;;;;;;5074541;28;20048;-80
2022/01/11 04:03:40;;;;;;;124.07;48.28;;;;;;;;;;5081356;28;20106;-80
2022/01/11 04:06:06;;;;;;;138.50;48.90;;;;;;;;;;5090904;28;20056;-80
2022/01/11 04:08:32;;;;;;;123.00;47.78;;;;;;;;;;5060866;28;20045;-81
2022/01/11 04:10:58;;;;;;;130.60;48.35;;;;;;;;;;5063461;28;20671;-81
2022/01/11 04:13:25;;;;;;;137.55;49.10;;;;;;;;;;5061623;28;20037;-80
2022/01/11 04:15:51;;;;;;;127.65;50.58;;;;;;;;;;5055282;28;20077;-80
2022/01/11 04:18:17;;;;;;;118.00;46.38;;;;;;;;;;5064300;28;20449;-81
2022/01/11 04:20:43;;;;;;;120.43;48.72;;;;;;;;;;5066005;28;20043;-81
2022/01/11 04:23:12;;;;;;;135.55;49.15;;;;;;;;;;5074413;28;20050;-80
2022/01/11 04:25:38;;;;;;;124.55;46.45;;;;;;;;;;5079073;28;20053;-81
2022/01/11 04:28:05;;;;;;;119.60;47.83;;;;;;;;;;5048350;28;20036;-81
2022/01/11 04:30:31;;;;;;;110.43;44.53;;;;;;;;;;5079101;28;20047;-82
2022/01/11 04:32:57;;;;;;;122.40;45.92;;;;;;;;;;5081770;28;20411;-80
2022/01/11 04:35:24;;;;;;;111.22;45.47;;;;;;;;;;5089455;28;20047;-80
2022/01/11 04:37:50;;;;;;;116.68;46.05;;;;;;;;;;5090809;28;20055;-81
2022/01/11 04:40:16;;;;;;;114.63;43.92;;;;;;;;;;5097257;28;20044;-79
2022/01/11 04:42:43;;;;;;;117.60;44.15;;;;;;;;;;5065414;28;20036;-79
2022/01/11 04:45:14;;;;;;;111.80;42.60;;;;;;;;;;5095799;28;20048;-79
2022/01/11 04:47:40;;;;;;;128.43;45.88;;;;;;;;;;5092911;28;20044;-80
2022/01/11 04:50:09;;;;;;;121.18;43.05;;;;;;;;;;5060468;28;20048;-79
2022/01/11 04:52:35;;;;;;;107.20;42.65;;;;;;;;;;5084662;28;20047;-81
2022/01/11 04:55:01;;;;;;;117.82;43.33;;;;;;;;;;5073525;28;20121;-79
2022/01/11 04:57:27;;;;;;;109.82;41.53;;;;;;;;;;5081835;28;20047;-79
2022/01/11 04:59:53;;;;;;;108.05;43.00;;;;;;;;;;5083470;28;20066;-79
2022/01/11 05:02:19;;;;;;;105.90;43.28;;;;;;;;;;5063874;28;20131;-80
2022/01/11 05:04:46;;;;;;;99.80;40.95;;;;;;;;;;5069547;28;20052;-79
2022/01/11 05:07:12;;;;;;;104.03;40.00;;;;;;;;;;5087916;28;20103;-79
2022/01/11 05:09:38;;;;;;;86.70;39.30;;;;;;;;;;5088502;28;20044;-80
2022/01/11 05:12:04;;;;;;;100.90;40.67;;;;;;;;;;5073793;28;20056;-80
2022/01/11 05:14:30;;;;;;;102.82;40.63;;;;;;;;;;5066851;28;20044;-81
2022/01/11 05:16:56;;;;;;;87.45;37.80;;;;;;;;;;5067384;28;20044;-81
2022/01/11 05:19:22;;;;;;;92.95;36.70;;;;;;;;;;5076429;28;20400;-80
2022/01/11 05:21:48;;;;;;;94.82;39.47;;;;;;;;;;5081694;28;20486;-81
2022/01/11 05:24:14;;;;;;;87.32;38.35;;;;;;;;;;5070951;28;20442;-80
2022/01/11 05:26:40;;;;;;;92.32;37.55;;;;;;;;;;5078451;28;20075;-81
2022/01/11 05:29:06;;;;;;;94.45;36.72;;;;;;;;;;5055894;28;20124;-80
2022/01/11 05:31:36;;;;;;;78.78;34.50;;;;;;;;;;5082459;28;20062;-76
2022/01/11 05:34:03;;;;;;;89.38;36.22;;;;;;;;;;5080548;28;20044;-81
2022/01/11 05:36:29;;;;;;;87.63;38.13;;;;;;;;;;5054991;28;20051;-88
2022/01/11 05:38:55;;;;;;;90.07;36.05;;;;;;;;;;5064794;28;20483;-80
2022/01/11 05:41:21;;;;;;;92.28;36.88;;;;;;;;;;5071436;28;20395;-84
2022/01/11 05:43:47;;;;;;;79.82;37.03;;;;;;;;;;5072029;28;20056;-82
2022/01/11 05:46:13;;;;;;;78.50;35.00;;;;;;;;;;5060164;28;20513;-85
2022/01/11 05:48:42;;;;;;;86.32;36.05;;;;;;;;;;5072342;28;20082;-85
2022/01/11 05:51:08;;;;;;;83.70;35.35;;;;;;;;;;5075799;28;20044;-83
2022/01/11 05:53:34;;;;;;;84.10;33.45;;;;;;;;;;5076047;28;20047;-83
2022/01/11 05:56:00;;;;;;;80.43;34.92;;;;;;;;;;5070920;28;20051;-84
2022/01/11 05:58:26;;;;;;;86.32;34.42;;;;;;;;;;5065668;28;20079;-79
2022/01/11 06:00:52;;;;;;;78.68;33.22;;;;;;;;;;5084976;28;20395;-85
2022/01/11 06:03:18;;;;;;;81.05;33.40;;;;;;;;;;5092683;28;20044;-82
2022/01/11 06:05:44;;;;;;;78.20;34.05;;;;;;;;;;5069926;28;20441;-82
2022/01/11 06:08:16;;;;;;;73.43;32.65;;;;;;;;;;5047621;28;20055;-80
2022/01/11 06:10:42;;;;;;;66.25;32.20;;;;;;;;;;5059462;28;20090;-81
2022/01/11 06:13:09;;;;;;;71.57;31.73;;;;;;;;;;5098317;28;20445;-81
2022/01/11 06:15:35;;;;;;;77.10;33.22;;;;;;;;;;5074696;28;20040;-81
2022/01/11 06:18:01;;;;;;;72.40;31.90;;;;;;;;;;5076554;28;22022;-81
2022/01/11 06:20:27;;;;;;;70.53;31.77;;;;;;;;;;5091544;28;20048;-81
2022/01/11 06:22:53;;;;;;;71.45;32.20;;;;;;;;;;5052412;28;20045;-80
2022/01/11 06:25:19;;;;;;;69.80;33.08;;;;;;;;;;5071448;28;20080;-81
2022/01/11 06:27:45;;;;;;;69.47;31.52;;;;;;;;;;5105859;28;20044;-81
2022/01/11 06:30:12;;;;;;;67.40;32.13;;;;;;;;;;5088730;28;20127;-80
2022/01/11 06:32:38;;;;;;;70.10;30.98;;;;;;;;;;5069483;28;20039;-82
2022/01/11 06:35:06;;;;;;;65.38;32.00;;;;;;;;;;5062521;28;20040;-79
2022/01/11 06:37:32;;;;;;;78.93;32.38;;;;;;;;;;5069303;28;20048;-78
2022/01/11 06:40:00;;;;;;;66.22;31.85;;;;;;;;;;5064240;28;20040;-83
2022/01/11 06:42:26;;;;;;;130.15;34.22;;;;;;;;;;5057731;28;20128;-83
2022/01/11 06:44:52;;;;;;;64.32;30.63;;;;;;;;;;5078990;28;20047;-83
2022/01/11 06:47:19;;;;;;;60.55;29.33;;;;;;;;;;5080495;28;20442;-84
2022/01/11 06:49:45;;;;;;;61.92;28.65;;;;;;;;;;5068293;28;20044;-81
2022/01/11 06:52:11;;;;;;;60.85;28.65;;;;;;;;;;5091176;28;20071;-85
2022/01/11 06:54:37;;;;;;;64.90;29.08;;;;;;;;;;5064142;28;20495;-81
2022/01/11 06:57:03;;;;;;;65.18;29.70;;;;;;;;;;5076568;28;20383;-81
2022/01/11 06:59:29;;;;;;;74.40;31.98;;;;;;;;;;5081011;28;20036;-82
2022/01/11 07:01:55;;;;;;;65.65;29.35;;;;;;;;;;5082459;28;20040;-81
2022/01/11 07:04:21;;;;;;;63.42;28.38;;;;;;;;;;5101476;28;20063;-81
2022/01/11 07:06:48;;;;;;;59.95;28.67;;;;;;;;;;5084970;28;20044;-81
2022/01/11 07:09:14;;;;;;;58.97;27.55;;;;;;;;;;5064236;28;20048;-81
2022/01/11 07:11:40;;;;;;;66.78;29.60;;;;;;;;;;5075903;28;20059;-81
2022/01/11 07:14:06;;;;;;;63.35;28.88;;;;;;;;;;5057272;28;22120;-82
2022/01/11 07:16:32;;;;;;;55.05;26.58;;;;;;;;;;5064377;28;20047;-82
2022/01/11 07:18:58;;;;;;;53.78;27.48;;;;;;;;;;5061897;28;20098;-82
2022/01/11 07:21:24;;;;;;;59.63;27.08;;;;;;;;;;5065034;28;20048;-82
2022/01/11 07:23:50;;;;;;;63.20;28.85;;;;;;;;;;5075646;28;20063;-82
2022/01/11 07:26:16;;;;;;;52.40;26.55;;;;;;;;;;5073010;28;20044;-82
2022/01/11 07:28:42;;;;;;;57.88;28.13;;;;;;;;;;5061706;28;20059;-82
2022/01/11 07:31:08;;;;;;;53.45;26.25;;;;;;;;;;5049083;28;20045;-80
2022/01/11 07:33:34;;;;;;;56.72;27.30;;;;;;;;;;5064957;28;20390;-83
2022/01/11 07:36:01;;;;;;;60.00;28.30;;;;;;;;;;5066807;28;20040;-81
2022/01/11 07:38:27;;;;;;;61.17;27.83;;;;;;;;;;5067622;28;20063;-81
2022/01/11 07:40:53;;;;;;;70.15;37.17;;;;;;;;;;5054826;28;20062;-82
2022/01/11 07:43:19;;;;;;;55.00;26.17;;;;;;;;;;5065023;28;20048;-82
2022/01/11 07:45:45;;;;;;;60.63;27.17;;;;;;;;;;5087012;28;20048;-81
2022/01/11 07:48:11;;;;;;;51.33;26.13;;;;;;;;;;5054003;28;20131;-81
2022/01/11 07:50:37;;;;;;;55.15;24.77;;;;;;;;;;5095160;27;20050;-82
2022/01/11 07:53:05;;;;;;;53.63;25.15;;;;;;;;;;5046062;28;20094;-82
2022/01/11 07:55:31;;;;;;;55.35;24.38;;;;;;;;;;5048225;28;20052;-82
2022/01/11 07:57:57;;;;;;;47.50;26.08;;;;;;;;;;5076798;28;20176;-81
2022/01/11 08:00:24;;;;;;;49.60;23.98;;;;;;;;;;5060781;28;20040;-82
2022/01/11 08:02:50;;;;;;;54.47;24.83;;;;;;;;;;5064300;28;20415;-81
2022/01/11 08:05:18;;;;;;;48.92;25.10;;;;;;;;;;5094032;27;20052;-81
2022/01/11 08:07:44;;;;;;;52.35;26.67;;;;;;;;;;5066367;28;20098;-81
2022/01/11 08:10:11;;;;;;;53.53;23.83;;;;;;;;;;5092213;28;20055;-82
2022/01/11 08:12:38;;;;;;;56.17;26.08;;;;;;;;;;5063868;28;20530;-82
2022/01/11 08:15:04;;;;;;;47.25;23.90;;;;;;;;;;5070807;28;20083;-82
2022/01/11 08:17:31;;;;;;;50.45;25.75;;;;;;;;;;5073138;28;20130;-82
2022/01/11 08:19:57;;;;;;;46.78;24.75;;;;;;;;;;5072322;28;20493;-83
2022/01/11 08:22:25;;;;;;;52.28;25.35;;;;;;;;;;5062050;28;20044;-81
2022/01/11 08:24:51;;;;;;;59.47;27.20;;;;;;;;;;5044978;28;20091;-81
2022/01/11 08:27:19;;;;;;;54.60;26.85;;;;;;;;;;5062982;28;20060;-83
2022/01/11 08:29:46;;;;;;;49.83;25.20;;;;;;;;;;5039001;28;20063;-82
2022/01/11 08:32:12;;;;;;;48.83;25.67;;;;;;;;;;5056219;28;20068;-82
2022/01/11 08:34:38;;;;;;;45.88;23.90;;;;;;;;;;5046777;28;20040;-82
2022/01/11 08:37:04;;;;;;;51.65;24.10;;;;;;;;;;5045001;28;20036;-82
2022/01/11 08:39:31;;;;;;;52.53;24.15;;;;;;;;;;5083890;28;20177;-82
2022/01/11 08:41:57;;;;;;;50.63;25.02;;;;;;;;;;5063962;28;20052;-83
2022/01/11 08:44:24;;;;;;;44.92;24.02;;;;;;;;;;5080691;28;20028;-82
2022/01/11 08:46:50;;;;;;;47.22;24.63;;;;;;;;;;5081920;28;20032;-83
2022/01/11 08:49:16;;;;;;;46.08;23.10;;;;;;;;;;5075578;28;20160;-82
2022/01/11 08:51:43;;;;;;;47.92;23.52;;;;;;;;;;5067496;28;20143;-81
2022/01/11 08:54:11;;;;;;;43.15;22.00;;;;;;;;;;5048392;28;20506;-82
2022/01/11 08:56:38;;;;;;;42.42;22.45;;;;;;;;;;5060146;28;20047;-82
2022/01/11 08:59:04;;;;;;;49.20;23.65;;;;;;;;;;5072139;28;20048;-82
2022/01/11 09:01:36;;;;;;;45.50;22.95;;;;;;;;;;5078618;28;20169;-82
2022/01/11 09:04:02;;;;;;;41.80;21.95;;;;;;;;;;5092867;28;20052;-82
2022/01/11 09:06:29;;;;;;;44.53;22.63;;;;;;;;;;5063266;28;20284;-81
2022/01/11 09:08:55;;;;;;;44.88;22.08;;;;;;;;;;5067649;28;20043;-82
2022/01/11 09:11:21;;;;;;;50.45;25.08;;;;;;;;;;5092371;28;20577;-82
2022/01/11 09:13:48;;;;;;;49.95;25.17;;;;;;;;;;5091451;28;20079;-83
2022/01/11 09:16:15;;;;;;;46.03;22.05;;;;;;;;;;5058859;28;20048;-82
2022/01/11 09:18:41;;;;;;;47.10;23.00;;;;;;;;;;5064254;28;20078;-83
2022/01/11 09:21:08;;;;;;;49.60;23.40;;;;;;;;;;5056978;28;20197;-83
2022/01/11 09:23:35;;;;;;;47.97;22.55;;;;;;;;;;5059668;28;20040;-83
2022/01/11 09:26:01;;;;;;;45.72;22.50;;;;;;;;;;5058679;28;20525;-84
2022/01/11 09:28:27;;;;;;;47.55;24.65;;;;;;;;;;5071346;28;20051;-82
2022/01/11 09:30:53;;;;;;;48.55;22.65;;;;;;;;;;5072163;28;21024;-82
2022/01/11 09:33:19;;;;;;;50.70;23.40;;;;;;;;;;5053332;28;20052;-82
2022/01/11 09:35:45;;;;;;;50.75;22.95;;;;;;;;;;5053491;28;20051;-82
2022/01/11 09:38:11;;;;;;;49.45;23.85;;;;;;;;;;5056404;28;20166;-80
2022/01/11 09:40:38;;;;;;;45.45;22.55;;;;;;;;;;5053278;28;20051;-81
2022/01/11 09:43:04;;;;;;;52.47;24.20;;;;;;;;;;5042093;28;20127;-82
2022/01/11 09:45:30;;;;;;;47.85;21.60;;;;;;;;;;5054996;28;20622;-82
2022/01/11 09:47:56;;;;;;;44.35;22.85;;;;;;;;;;5044756;28;20445;-80
2022/01/11 09:50:22;;;;;;;42.38;22.40;;;;;;;;;;5069631;28;20047;-82
2022/01/11 09:52:48;;;;;;;47.40;24.75;;;;;;;;;;5061840;28;20036;-83
2022/01/11 09:55:15;;;;;;;41.85;22.27;;;;;;;;;;5056310;28;20089;-80
2022/01/11 09:57:42;;;;;;;43.35;22.55;;;;;;;;;;5053069;28;20043;-82
2022/01/11 10:00:14;;;;;;;45.08;23.58;;;;;;;;;;5051469;28;20436;-80
2022/01/11 10:02:40;;;;;;;42.42;22.60;;;;;;;;;;5071659;28;20094;-83
2022/01/11 10:05:08;;;;;;;41.80;21.83;;;;;;;;;;5057925;28;20056;-82
2022/01/11 10:07:35;;;;;;;42.00;22.40;;;;;;;;;;5067054;28;20131;-80
2022/01/11 10:10:01;;;;;;;37.20;20.90;;;;;;;;;;5067270;28;20044;-80
2022/01/11 10:12:34;;;;;;;33.75;19.83;;;;;;;;;;5066326;28;20051;-83
2022/01/11 10:15:00;;;;;;;40.97;20.35;;;;;;;;;;5063559;28;20079;-83
2022/01/11 10:17:28;;;;;;;38.25;21.00;;;;;;;;;;5066147;28;20446;-81
2022/01/11 10:20:06;;;;;;;40.15;21.20;;;;;;;;;;5065736;28;20383;-80
2022/01/11 10:22:32;;;;;;;34.95;20.88;;;;;;;;;;5080964;28;20040;-80
2022/01/11 10:24:59;;;;;;;43.60;23.23;;;;;;;;;;5079311;28;20051;-81
2022/01/11 10:27:26;;;;;;;43.42;23.88;;;;;;;;;;5065592;28;20071;-81
2022/01/11 10:29:53;;;;;;;46.60;23.67;;;;;;;;;;5081788;28;20044;-83
2022/01/11 10:32:21;;;;;;;42.28;23.10;;;;;;;;;;5077083;28;20032;-85
2022/01/11 10:34:49;;;;;;;43.47;22.95;;;;;;;;;;5083454;28;20044;-81
2022/01/11 10:37:16;;;;;;;41.20;22.50;;;;;;;;;;5082879;28;20127;-85
2022/01/11 10:39:44;;;;;;;41.17;23.33;;;;;;;;;;5113322;28;20071;-81
2022/01/11 10:42:33;;;;;;;51.25;25.13;;;;;;;;;;5083132;28;20151;-86
2022/01/11 10:45:00;;;;;;;45.78;23.77;;;;;;;;;;5068441;28;20384;-85
2022/01/11 10:47:30;;;;;;;50.50;25.50;;;;;;;;;;5063896;28;20037;-83
2022/01/11 10:50:01;;;;;;;53.40;26.15;;;;;;;;;;5083540;28;20477;-84
2022/01/11 10:52:34;;;;;;;50.85;26.33;;;;;;;;;;5065571;28;20043;-82
2022/01/11 10:55:02;;;;;;;48.53;25.95;;;;;;;;;;5083585;28;20209;-83
2022/01/11 10:57:30;;;;;;;48.88;24.17;;;;;;;;;;5069559;28;20044;-83
2022/01/11 11:00:15;;;;;;;50.28;24.73;;;;;;;;;;5067450;28;20044;-84
2022/01/11 11:02:42;;;;;;;42.75;24.63;;;;;;;;;;5067749;28;20097;-85
2022/01/11 11:05:12;;;;;;;51.97;26.20;;;;;;;;;;5082979;28;20084;-83
2022/01/11 11:07:38;;;;;;;44.08;24.83;;;;;;;;;;5083702;28;20048;-83
2022/01/11 11:10:05;;;;;;;46.33;24.05;;;;;;;;;;5070492;28;20040;-85
2022/01/11 11:12:31;;;;;;;247.03;78.23;;;;;;;;;;5071710;28;20588;-86
2022/01/11 11:14:59;;;;;;;39.70;22.05;;;;;;;;;;5068513;28;20044;-84
2022/01/11 11:17:30;;;;;;;48.65;22.45;;;;;;;;;;5085896;28;20043;-83
2022/01/11 11:19:56;;;;;;;43.38;22.17;;;;;;;;;;5114385;28;20085;-88
2022/01/11 11:22:24;;;;;;;42.92;22.85;;;;;;;;;;5069901;28;20056;-86
2022/01/11 11:24:52;;;;;;;232.65;69.10;;;;;;;;;;5089702;28;20047;-78
2022/01/11 11:27:20;;;;;;;246.83;77.57;;;;;;;;;;5097230;28;20452;-82
2022/01/11 11:29:47;;;;;;;43.95;24.10;;;;;;;;;;5072574;28;20128;-85
2022/01/11 11:32:16;;;;;;;323.93;95.87;;;;;;;;;;5071367;28;20074;-84
2022/01/11 11:34:44;;;;;;;266.50;75.45;;;;;;;;;;5072365;28;20835;-83
2022/01/11 11:37:11;;;;;;;43.17;23.17;;;;;;;;;;5073733;28;20044;-85
2022/01/11 11:39:38;;;;;;;46.28;26.13;;;;;;;;;;5081349;28;20094;-82
2022/01/11 11:42:04;;;;;;;37.10;19.85;;;;;;;;;;5086218;28;20080;-82
2022/01/11 11:44:36;;;;;;;55.00;24.85;;;;;;;;;;5070648;28;20066;-81
2022/01/11 11:47:06;;;;;;;38.70;22.00;;;;;;;;;;5096329;28;20040;-80
2022/01/11 11:49:44;;;;;;;39.15;20.90;;;;;;;;;;5102325;28;20044;-82
2022/01/11 11:52:34;;;;;;;37.20;21.27;;;;;;;;;;5066107;28;20044;-81
2022/01/11 11:55:02;;;;;;;39.30;21.10;;;;;;;;;;5067721;28;20519;-81
2022/01/11 11:57:32;;;;;;;41.20;22.05;;;;;;;;;;5084115;28;20109;-81
2022/01/11 12:00:00;;;;;;;39.97;22.60;;;;;;;;;;5070454;28;20078;-83
2022/01/11 12:02:37;;;;;;;340.93;88.00;;;;;;;;;;5065960;28;20427;-80
2022/01/11 12:05:04;;;;;;;41.50;22.23;;;;;;;;;;5069705;28;20052;-85
2022/01/11 12:07:42;;;;;;;44.10;22.67;;;;;;;;;;5087861;28;20048;-84
2022/01/11 12:10:17;;;;;;;44.90;23.33;;;;;;;;;;5068486;28;20040;-82
2022/01/11 12:12:49;;;;;;;40.70;23.35;;;;;;;;;;5066008;28;20415;-84
2022/01/11 12:15:21;;;;;;;42.05;22.33;;;;;;;;;;5070635;28;20048;-86
2022/01/11 12:18:08;;;;;;;319.40;90.77;;;;;;;;;;5086140;28;20072;-82
2022/01/11 12:20:40;;;;;;;42.47;22.33;;;;;;;;;;5090841;28;20052;-82
2022/01/11 12:23:10;;;;;;;43.00;23.10;;;;;;;;;;5068797;28;20126;-81
2022/01/11 12:25:43;;;;;;;36.83;22.23;;;;;;;;;;5070353;28;20044;-85
2022/01/11 12:28:17;;;;;;;42.17;22.95;;;;;;;;;;5070962;28;20044;-81
2022/01/11 12:30:43;;;;;;;38.17;21.17;;;;;;;;;;5083404;28;20535;-81
2022/01/11 12:33:10;;;;;;;40.13;21.50;;;;;;;;;;5053064;28;20055;-81
2022/01/11 12:35:55;;;;;;;36.88;21.10;;;;;;;;;;5066461;28;20052;-82
2022/01/11 12:38:22;;;;;;;41.20;22.88;;;;;;;;;;5085625;28;20044;-83
2022/01/11 12:40:48;;;;;;;38.10;22.40;;;;;;;;;;5084262;28;20437;-85
2022/01/11 12:43:21;;;;;;;35.92;21.55;;;;;;;;;;5114312;27;20049;-83
2022/01/11 12:46:05;;;;;;;39.35;20.05;;;;;;;;;;5068134;28;20074;-82
2022/01/11 12:48:49;;;;;;;43.03;22.90;;;;;;;;;;5068480;28;20043;-82
2022/01/11 12:51:36;;;;;;;36.47;20.77;;;;;;;;;;5088273;28;20060;-82
2022/01/11 12:54:09;;;;;;;34.67;21.05;;;;;;;;;;5089751;28;20062;-86
2022/01/11 12:56:36;;;;;;;42.50;21.27;;;;;;;;;;5087306;28;20044;-82
2022/01/11 12:59:03;;;;;;;37.65;20.65;;;;;;;;;;5069943;28;20707;-84
2022/01/11 13:01:29;;;;;;;30.42;19.10;;;;;;;;;;5068193;28;20429;-87
2022/01/11 13:03:57;;;;;;;36.05;20.83;;;;;;;;;;5066041;28;20052;-84
2022/01/11 13:06:33;;;;;;;32.75;19.63;;;;;;;;;;5065326;28;20482;-84
2022/01/11 13:09:00;;;;;;;36.17;20.58;;;;;;;;;;5069718;28;20048;-84
2022/01/11 13:11:26;;;;;;;35.60;20.00;;;;;;;;;;5079611;28;20071;-85
2022/01/11 13:14:16;;;;;;;35.00;18.65;;;;;;;;;;5048939;28;20086;-84
2022/01/11 13:16:42;;;;;;;34.63;18.80;;;;;;;;;;5066207;28;20044;-82
2022/01/11 13:19:09;;;;;;;37.13;20.42;;;;;;;;;;5070006;28;20040;-83
2022/01/11 13:21:35;;;;;;;34.83;19.30;;;;;;;;;;5086327;28;20044;-83
2022/01/11 13:24:27;;;;;;;29.92;18.33;;;;;;;;;;5086097;28;20043;-84
2022/01/11 13:26:54;;;;;;;30.17;17.95;;;;;;;;;;5082572;28;20048;-85
2022/01/11 13:29:21;;;;;;;30.13;17.42;;;;;;;;;;5065866;28;20037;-83
2022/01/11 13:31:51;;;;;;;30.73;17.13;;;;;;;;;;5068044;28;20052;-83
2022/01/11 13:34:17;;;;;;;28.38;18.13;;;;;;;;;;5063161;28;20040;-80
2022/01/11 13:36:50;;;;;;;33.90;16.67;;;;;;;;;;5062733;28;20059;-81
2022/01/11 13:39:21;;;;;;;31.95;17.92;;;;;;;;;;5082679;28;20050;-82
2022/01/11 13:41:55;;;;;;;26.90;15.77;;;;;;;;;;5096353;28;20052;-81
2022/01/11 13:44:30;;;;;;;29.63;16.85;;;;;;;;;;5080313;28;20545;-81
2022/01/11 13:46:58;;;;;;;35.50;17.65;;;;;;;;;;5113862;27;20855;-78
2022/01/11 13:49:27;;;;;;;28.05;16.42;;;;;;;;;;5093591;28;20987;-79
2022/01/11 13:51:57;;;;;;;25.15;15.82;;;;;;;;;;5079865;28;20044;-88
2022/01/11 13:54:29;;;;;;;27.85;16.73;;;;;;;;;;5070517;28;20138;-85
2022/01/11 13:56:56;;;;;;;28.67;16.88;;;;;;;;;;5068281;28;20486;-88
2022/01/11 13:59:26;;;;;;;29.88;17.30;;;;;;;;;;5083949;28;20095;-84
2022/01/11 14:02:02;;;;;;;27.98;16.85;;;;;;;;;;5114472;27;20180;-79
2022/01/11 14:04:28;;;;;;;28.17;16.48;;;;;;;;;;5082636;28;20055;-83
2022/01/11 14:06:56;;;;;;;26.38;15.88;;;;;;;;;;5060577;28;20060;-82
2022/01/11 14:09:35;;;;;;;25.95;15.77;;;;;;;;;;5075015;28;20055;-82
2022/01/11 14:12:07;;;;;;;28.38;16.05;;;;;;;;;;5101387;28;20044;-81
2022/01/11 14:14:34;;;;;;;30.52;16.75;;;;;;;;;;5065369;28;20044;-81
2022/01/11 14:17:13;;;;;;;28.33;16.10;;;;;;;;;;5085947;28;20692;-90
2022/01/11 14:19:58;;;;;;;25.48;15.40;;;;;;;;;;5069351;28;20036;-88
2022/01/11 14:22:36;;;;;;;30.02;16.38;;;;;;;;;;5085852;28;20048;-88